DOKII EDDF-EBCI
Flight info
| Callsign | DOKII |
|---|---|
| Flight time | 0h 48m |
| Altitude | 22000 |
| Route | SOBRA2L/18 SOBRA DCT ROPUV DCT PESOV DCT LNO |
| Aircraft | SF50/L-BDGRSWY/LB2U2 |
Departure
| Time | 2026-05-05 08:39 |
|---|---|
| Airport | Frankfurt Main Airport (EDDF) |
Arrival
| Time | 2026-05-05 09:27 |
|---|---|
| Airport | Brussels South Charleroi Airport (EBCI) |
| Time | Latitude | Longitude | Altitude | Speed | Heading |
|---|---|---|---|---|---|
| 2026-05-05 08:04 | 50.04960 | 8.59869 | 339 ft | 0 kts | 297° |
| 2026-05-05 08:17 | 50.04953 | 8.59892 | 338 ft | 4 kts | 300° |
| 2026-05-05 08:18 | 50.04939 | 8.59928 | 338 ft | 4 kts | 297° |
| 2026-05-05 08:18 | 50.04936 | 8.59959 | 339 ft | 0 kts | 250° |
| 2026-05-05 08:23 | 50.04930 | 8.59936 | 337 ft | 8 kts | 250° |
| 2026-05-05 08:23 | 50.04909 | 8.59853 | 339 ft | 9 kts | 251° |
| 2026-05-05 08:24 | 50.04884 | 8.59737 | 338 ft | 11 kts | 250° |
| 2026-05-05 08:24 | 50.04865 | 8.59659 | 339 ft | 3 kts | 248° |
| 2026-05-05 08:24 | 50.04864 | 8.59657 | 339 ft | 0 kts | 248° |
| 2026-05-05 08:25 | 50.04864 | 8.59654 | 339 ft | 4 kts | 248° |
| 2026-05-05 08:26 | 50.04827 | 8.59545 | 337 ft | 12 kts | 172° |
| 2026-05-05 08:26 | 50.04714 | 8.59600 | 338 ft | 22 kts | 167° |
| 2026-05-05 08:26 | 50.04595 | 8.59619 | 339 ft | 0 kts | 182° |
| 2026-05-05 08:28 | 50.04593 | 8.59619 | 339 ft | 4 kts | 182° |
| 2026-05-05 08:28 | 50.04508 | 8.59626 | 339 ft | 14 kts | 179° |
| 2026-05-05 08:28 | 50.04381 | 8.59633 | 339 ft | 20 kts | 177° |
| 2026-05-05 08:28 | 50.04275 | 8.59633 | 339 ft | 12 kts | 188° |
| 2026-05-05 08:29 | 50.04168 | 8.59610 | 339 ft | 19 kts | 192° |
| 2026-05-05 08:29 | 50.04034 | 8.59534 | 339 ft | 18 kts | 208° |
| 2026-05-05 08:29 | 50.03931 | 8.59403 | 339 ft | 15 kts | 232° |
| 2026-05-05 08:30 | 50.03818 | 8.59067 | 337 ft | 15 kts | 254° |
| 2026-05-05 08:30 | 50.03776 | 8.58887 | 338 ft | 20 kts | 251° |
| 2026-05-05 08:30 | 50.03723 | 8.58654 | 339 ft | 25 kts | 250° |
| 2026-05-05 08:30 | 50.03656 | 8.58377 | 338 ft | 27 kts | 249° |
| 2026-05-05 08:31 | 50.03586 | 8.58087 | 339 ft | 30 kts | 250° |
| 2026-05-05 08:31 | 50.03509 | 8.57765 | 339 ft | 34 kts | 249° |
| 2026-05-05 08:31 | 50.03442 | 8.57485 | 338 ft | 19 kts | 249° |
| 2026-05-05 08:31 | 50.03420 | 8.57396 | 339 ft | 0 kts | 250° |
| 2026-05-05 08:32 | 50.03408 | 8.57348 | 338 ft | 10 kts | 248° |
| 2026-05-05 08:33 | 50.03371 | 8.57188 | 338 ft | 19 kts | 250° |
| 2026-05-05 08:33 | 50.03317 | 8.56964 | 337 ft | 25 kts | 250° |
| 2026-05-05 08:33 | 50.03307 | 8.56803 | 339 ft | 11 kts | 337° |
| 2026-05-05 08:33 | 50.03330 | 8.56663 | 338 ft | 18 kts | 256° |
| 2026-05-05 08:34 | 50.03275 | 8.56548 | 337 ft | 7 kts | 170° |
| 2026-05-05 08:34 | 50.03235 | 8.56564 | 338 ft | 11 kts | 161° |
| 2026-05-05 08:34 | 50.03170 | 8.56463 | 337 ft | 21 kts | 250° |
| 2026-05-05 08:34 | 50.03123 | 8.56220 | 339 ft | 20 kts | 258° |
| 2026-05-05 08:35 | 50.03080 | 8.55984 | 339 ft | 25 kts | 255° |
| 2026-05-05 08:35 | 50.03030 | 8.55707 | 338 ft | 28 kts | 250° |
| 2026-05-05 08:35 | 50.02964 | 8.55442 | 339 ft | 23 kts | 248° |
| 2026-05-05 08:35 | 50.02903 | 8.55205 | 339 ft | 24 kts | 248° |
| 2026-05-05 08:36 | 50.02844 | 8.54959 | 339 ft | 25 kts | 250° |
| 2026-05-05 08:36 | 50.02779 | 8.54708 | 338 ft | 25 kts | 248° |
| 2026-05-05 08:36 | 50.02718 | 8.54450 | 339 ft | 26 kts | 252° |
| 2026-05-05 08:36 | 50.02663 | 8.54184 | 338 ft | 26 kts | 251° |
| 2026-05-05 08:37 | 50.02604 | 8.53918 | 339 ft | 26 kts | 251° |
| 2026-05-05 08:37 | 50.02540 | 8.53655 | 336 ft | 26 kts | 248° |
| 2026-05-05 08:37 | 50.02483 | 8.53423 | 337 ft | 21 kts | 250° |
| 2026-05-05 08:37 | 50.02433 | 8.53211 | 337 ft | 21 kts | 249° |
| 2026-05-05 08:38 | 50.02381 | 8.52998 | 337 ft | 20 kts | 249° |
| 2026-05-05 08:38 | 50.02331 | 8.52792 | 338 ft | 17 kts | 249° |
| 2026-05-05 08:38 | 50.02300 | 8.52673 | 339 ft | 10 kts | 239° |
| 2026-05-05 08:38 | 50.02168 | 8.52611 | 339 ft | 44 kts | 180° |
| 2026-05-05 08:39 | 50.01662 | 8.52611 | 340 ft | 98 kts | 178° |
| 2026-05-05 08:39 | 50.00903 | 8.52629 | 457 ft | 119 kts | 181° |
| 2026-05-05 08:39 | 50.00003 | 8.52617 | 719 ft | 139 kts | 179° |
| 2026-05-05 08:39 | 49.98999 | 8.52722 | 1087 ft | 146 kts | 175° |
| 2026-05-05 08:40 | 49.97996 | 8.52789 | 1580 ft | 143 kts | 178° |
| 2026-05-05 08:40 | 49.96995 | 8.52848 | 2001 ft | 144 kts | 177° |
| 2026-05-05 08:40 | 49.95992 | 8.52912 | 2436 ft | 144 kts | 177° |
| 2026-05-05 08:40 | 49.94993 | 8.52981 | 2890 ft | 143 kts | 177° |
| 2026-05-05 08:41 | 49.94001 | 8.53046 | 3332 ft | 142 kts | 178° |
| 2026-05-05 08:41 | 49.93014 | 8.53115 | 3746 ft | 142 kts | 178° |
| 2026-05-05 08:41 | 49.92025 | 8.53183 | 4122 ft | 143 kts | 178° |
| 2026-05-05 08:41 | 49.91040 | 8.53256 | 4491 ft | 144 kts | 178° |
| 2026-05-05 08:42 | 49.90024 | 8.53322 | 4832 ft | 156 kts | 178° |
| 2026-05-05 08:42 | 49.88865 | 8.53401 | 5238 ft | 171 kts | 179° |
| 2026-05-05 08:42 | 49.87695 | 8.53463 | 5890 ft | 168 kts | 181° |
| 2026-05-05 08:42 | 49.86561 | 8.53048 | 6475 ft | 168 kts | 201° |
| 2026-05-05 08:43 | 49.85457 | 8.52393 | 7007 ft | 171 kts | 199° |
| 2026-05-05 08:43 | 49.84331 | 8.51782 | 7537 ft | 173 kts | 199° |
| 2026-05-05 08:43 | 49.83192 | 8.51141 | 8057 ft | 175 kts | 200° |
| 2026-05-05 08:43 | 49.82038 | 8.50488 | 8593 ft | 178 kts | 200° |
| 2026-05-05 08:44 | 49.80870 | 8.49827 | 9148 ft | 180 kts | 200° |
| 2026-05-05 08:44 | 49.79682 | 8.49160 | 9705 ft | 182 kts | 201° |
| 2026-05-05 08:44 | 49.78483 | 8.48466 | 10203 ft | 185 kts | 200° |
| 2026-05-05 08:44 | 49.77328 | 8.47620 | 10670 ft | 185 kts | 217° |
| 2026-05-05 08:45 | 49.76445 | 8.46180 | 11132 ft | 186 kts | 234° |
| 2026-05-05 08:45 | 49.75938 | 8.44462 | 11574 ft | 188 kts | 252° |
| 2026-05-05 08:45 | 49.75824 | 8.42404 | 12045 ft | 192 kts | 272° |
| 2026-05-05 08:45 | 49.76123 | 8.40383 | 12517 ft | 194 kts | 281° |
| 2026-05-05 08:46 | 49.76446 | 8.38348 | 13040 ft | 195 kts | 279° |
| 2026-05-05 08:46 | 49.76768 | 8.36302 | 13551 ft | 196 kts | 280° |
| 2026-05-05 08:46 | 49.77093 | 8.34260 | 13977 ft | 198 kts | 280° |
| 2026-05-05 08:46 | 49.77432 | 8.32170 | 14381 ft | 200 kts | 280° |
| 2026-05-05 08:47 | 49.77770 | 8.30078 | 14774 ft | 202 kts | 279° |
| 2026-05-05 08:47 | 49.78107 | 8.27989 | 15172 ft | 203 kts | 279° |
| 2026-05-05 08:47 | 49.78449 | 8.25853 | 15574 ft | 205 kts | 279° |
| 2026-05-05 08:47 | 49.78797 | 8.23698 | 15977 ft | 207 kts | 279° |
| 2026-05-05 08:48 | 49.79145 | 8.21523 | 16387 ft | 209 kts | 279° |
| 2026-05-05 08:48 | 49.79496 | 8.19327 | 16799 ft | 211 kts | 279° |
| 2026-05-05 08:48 | 49.79846 | 8.17142 | 17198 ft | 213 kts | 278° |
| 2026-05-05 08:48 | 49.80205 | 8.14908 | 17661 ft | 214 kts | 278° |
| 2026-05-05 08:49 | 49.80560 | 8.12675 | 18095 ft | 215 kts | 278° |
| 2026-05-05 08:49 | 49.80919 | 8.10413 | 18474 ft | 217 kts | 278° |
| 2026-05-05 08:49 | 49.81279 | 8.08146 | 18840 ft | 218 kts | 278° |
| 2026-05-05 08:49 | 49.81642 | 8.05856 | 19210 ft | 219 kts | 278° |
| 2026-05-05 08:50 | 49.82005 | 8.03561 | 19577 ft | 220 kts | 278° |
| 2026-05-05 08:50 | 49.82371 | 8.01249 | 19952 ft | 221 kts | 279° |
| 2026-05-05 08:50 | 49.82736 | 7.98931 | 20319 ft | 222 kts | 279° |
| 2026-05-05 08:50 | 49.83103 | 7.96598 | 20686 ft | 223 kts | 279° |
| 2026-05-05 08:51 | 49.83471 | 7.94264 | 21071 ft | 223 kts | 279° |
| 2026-05-05 08:51 | 49.83838 | 7.91922 | 21475 ft | 223 kts | 279° |
| 2026-05-05 08:51 | 49.84198 | 7.89622 | 21843 ft | 223 kts | 279° |
| 2026-05-05 08:51 | 49.84571 | 7.87212 | 21866 ft | 239 kts | 279° |
| 2026-05-05 08:52 | 49.84977 | 7.84623 | 21873 ft | 253 kts | 280° |
| 2026-05-05 08:52 | 49.85395 | 7.81958 | 21876 ft | 264 kts | 280° |
| 2026-05-05 08:52 | 49.85844 | 7.79100 | 21875 ft | 274 kts | 281° |
| 2026-05-05 08:52 | 49.86567 | 7.76313 | 21869 ft | 285 kts | 296° |
| 2026-05-05 08:53 | 49.87629 | 7.73669 | 21873 ft | 292 kts | 299° |
| 2026-05-05 08:53 | 49.88703 | 7.70963 | 21873 ft | 298 kts | 298° |
| 2026-05-05 08:53 | 49.89775 | 7.68218 | 21868 ft | 304 kts | 298° |
| 2026-05-05 08:53 | 49.90886 | 7.65401 | 21873 ft | 308 kts | 298° |
| 2026-05-05 08:54 | 49.92005 | 7.62584 | 21869 ft | 312 kts | 298° |
| 2026-05-05 08:54 | 49.93126 | 7.59743 | 21872 ft | 314 kts | 298° |
| 2026-05-05 08:54 | 49.94249 | 7.56881 | 21871 ft | 317 kts | 298° |
| 2026-05-05 08:54 | 49.95402 | 7.53945 | 21869 ft | 319 kts | 298° |
| 2026-05-05 08:55 | 49.96562 | 7.50994 | 21871 ft | 321 kts | 298° |
| 2026-05-05 08:55 | 49.97726 | 7.48025 | 21889 ft | 323 kts | 298° |
| 2026-05-05 08:55 | 49.98897 | 7.45033 | 21889 ft | 324 kts | 298° |
| 2026-05-05 08:55 | 50.00070 | 7.42037 | 21891 ft | 326 kts | 298° |
| 2026-05-05 08:56 | 50.01248 | 7.39021 | 21891 ft | 327 kts | 298° |
| 2026-05-05 08:56 | 50.02429 | 7.35993 | 21892 ft | 328 kts | 298° |
| 2026-05-05 08:56 | 50.03615 | 7.32953 | 21893 ft | 329 kts | 298° |
| 2026-05-05 08:56 | 50.04802 | 7.29904 | 21887 ft | 331 kts | 298° |
| 2026-05-05 08:57 | 50.05994 | 7.26840 | 21888 ft | 324 kts | 298° |
| 2026-05-05 08:57 | 50.07138 | 7.23907 | 21877 ft | 309 kts | 298° |
| 2026-05-05 08:57 | 50.08226 | 7.21107 | 21870 ft | 297 kts | 298° |
| 2026-05-05 08:57 | 50.09276 | 7.18393 | 21873 ft | 288 kts | 297° |
| 2026-05-05 08:58 | 50.10296 | 7.15752 | 21875 ft | 281 kts | 297° |
| 2026-05-05 08:58 | 50.11285 | 7.13196 | 21875 ft | 276 kts | 297° |
| 2026-05-05 08:58 | 50.12268 | 7.10654 | 21876 ft | 273 kts | 297° |
| 2026-05-05 08:58 | 50.13239 | 7.08136 | 21876 ft | 269 kts | 297° |
| 2026-05-05 08:59 | 50.14202 | 7.05641 | 21874 ft | 267 kts | 297° |
| 2026-05-05 08:59 | 50.15157 | 7.03167 | 21874 ft | 265 kts | 297° |
| 2026-05-05 08:59 | 50.16104 | 7.00711 | 21877 ft | 263 kts | 297° |
| 2026-05-05 08:59 | 50.17045 | 6.98262 | 21875 ft | 262 kts | 297° |
| 2026-05-05 09:00 | 50.17983 | 6.95822 | 21878 ft | 261 kts | 297° |
| 2026-05-05 09:00 | 50.18915 | 6.93394 | 21877 ft | 261 kts | 297° |
| 2026-05-05 09:00 | 50.19849 | 6.90966 | 21875 ft | 261 kts | 297° |
| 2026-05-05 09:00 | 50.20783 | 6.88525 | 21888 ft | 262 kts | 297° |
| 2026-05-05 09:01 | 50.21689 | 6.86158 | 21885 ft | 264 kts | 297° |
| 2026-05-05 09:01 | 50.22579 | 6.83665 | 21885 ft | 262 kts | 292° |
| 2026-05-05 09:01 | 50.23373 | 6.81096 | 21883 ft | 262 kts | 292° |
| 2026-05-05 09:01 | 50.24171 | 6.78533 | 21877 ft | 262 kts | 292° |
| 2026-05-05 09:02 | 50.24962 | 6.76020 | 21873 ft | 261 kts | 292° |
| 2026-05-05 09:02 | 50.25699 | 6.73669 | 21870 ft | 260 kts | 292° |
| 2026-05-05 09:02 | 50.26492 | 6.71134 | 21868 ft | 259 kts | 292° |
| 2026-05-05 09:02 | 50.27284 | 6.68595 | 21866 ft | 259 kts | 292° |
| 2026-05-05 09:03 | 50.28073 | 6.66068 | 21864 ft | 259 kts | 292° |
| 2026-05-05 09:03 | 50.28864 | 6.63525 | 21862 ft | 259 kts | 292° |
| 2026-05-05 09:03 | 50.29655 | 6.60991 | 21859 ft | 259 kts | 292° |
| 2026-05-05 09:03 | 50.30443 | 6.58451 | 21856 ft | 259 kts | 292° |
| 2026-05-05 09:04 | 50.31240 | 6.55884 | 21853 ft | 259 kts | 292° |
| 2026-05-05 09:04 | 50.32013 | 6.53397 | 21853 ft | 259 kts | 292° |
| 2026-05-05 09:04 | 50.32799 | 6.50861 | 21854 ft | 259 kts | 292° |
| 2026-05-05 09:04 | 50.33584 | 6.48325 | 21856 ft | 259 kts | 292° |
| 2026-05-05 09:05 | 50.34372 | 6.45779 | 21869 ft | 260 kts | 292° |
| 2026-05-05 09:05 | 50.35161 | 6.43230 | 21864 ft | 260 kts | 292° |
| 2026-05-05 09:05 | 50.35946 | 6.40683 | 21864 ft | 260 kts | 292° |
| 2026-05-05 09:05 | 50.36731 | 6.38137 | 21864 ft | 260 kts | 292° |
| 2026-05-05 09:06 | 50.37519 | 6.35585 | 21865 ft | 260 kts | 292° |
| 2026-05-05 09:06 | 50.38342 | 6.33071 | 21864 ft | 260 kts | 295° |
| 2026-05-05 09:06 | 50.39170 | 6.30556 | 21864 ft | 260 kts | 294° |
| 2026-05-05 09:06 | 50.39993 | 6.28033 | 21882 ft | 260 kts | 294° |
| 2026-05-05 09:07 | 50.40823 | 6.25514 | 21881 ft | 260 kts | 294° |
| 2026-05-05 09:07 | 50.41657 | 6.22991 | 21881 ft | 260 kts | 294° |
| 2026-05-05 09:07 | 50.42488 | 6.20466 | 21881 ft | 260 kts | 294° |
| 2026-05-05 09:07 | 50.43318 | 6.17938 | 21881 ft | 260 kts | 294° |
| 2026-05-05 09:08 | 50.44138 | 6.15443 | 21878 ft | 260 kts | 294° |
| 2026-05-05 09:08 | 50.44967 | 6.12917 | 21879 ft | 261 kts | 294° |
| 2026-05-05 09:08 | 50.45794 | 6.10390 | 21879 ft | 261 kts | 294° |
| 2026-05-05 09:08 | 50.46625 | 6.07856 | 21879 ft | 261 kts | 294° |
| 2026-05-05 09:09 | 50.47453 | 6.05324 | 21880 ft | 261 kts | 294° |
| 2026-05-05 09:09 | 50.48283 | 6.02785 | 21889 ft | 261 kts | 295° |
| 2026-05-05 09:09 | 50.49111 | 6.00248 | 21881 ft | 261 kts | 295° |
| 2026-05-05 09:09 | 50.49940 | 5.97703 | 21878 ft | 261 kts | 295° |
| 2026-05-05 09:10 | 50.50768 | 5.95164 | 21875 ft | 261 kts | 295° |
| 2026-05-05 09:10 | 50.51593 | 5.92631 | 21868 ft | 261 kts | 295° |
| 2026-05-05 09:10 | 50.52412 | 5.90106 | 21871 ft | 260 kts | 295° |
| 2026-05-05 09:10 | 50.53240 | 5.87556 | 21872 ft | 260 kts | 295° |
| 2026-05-05 09:11 | 50.54063 | 5.85026 | 21873 ft | 260 kts | 295° |
| 2026-05-05 09:11 | 50.54885 | 5.82484 | 21874 ft | 260 kts | 295° |
| 2026-05-05 09:11 | 50.55703 | 5.79952 | 21875 ft | 260 kts | 295° |
| 2026-05-05 09:11 | 50.56523 | 5.77421 | 21876 ft | 260 kts | 295° |
| 2026-05-05 09:12 | 50.57345 | 5.74878 | 21875 ft | 261 kts | 295° |
| 2026-05-05 09:12 | 50.58167 | 5.72328 | 21876 ft | 262 kts | 295° |
| 2026-05-05 09:12 | 50.59140 | 5.69901 | 21870 ft | 263 kts | 308° |
| 2026-05-05 09:12 | 50.60313 | 5.67684 | 21872 ft | 263 kts | 307° |
| 2026-05-05 09:13 | 50.61203 | 5.65165 | 21446 ft | 270 kts | 286° |
| 2026-05-05 09:13 | 50.61361 | 5.62123 | 20323 ft | 291 kts | 261° |
| 2026-05-05 09:13 | 50.60873 | 5.58934 | 19158 ft | 305 kts | 252° |
| 2026-05-05 09:13 | 50.60311 | 5.55750 | 17981 ft | 308 kts | 254° |
| 2026-05-05 09:14 | 50.59971 | 5.52350 | 16553 ft | 314 kts | 263° |
| 2026-05-05 09:14 | 50.59848 | 5.48949 | 15184 ft | 316 kts | 267° |
| 2026-05-05 09:14 | 50.59692 | 5.45468 | 13792 ft | 320 kts | 264° |
| 2026-05-05 09:14 | 50.59429 | 5.42061 | 12677 ft | 309 kts | 263° |
| 2026-05-05 09:15 | 50.59173 | 5.38734 | 11942 ft | 293 kts | 264° |
| 2026-05-05 09:15 | 50.58977 | 5.35680 | 11649 ft | 271 kts | 265° |
| 2026-05-05 09:15 | 50.58792 | 5.32805 | 11312 ft | 259 kts | 265° |
| 2026-05-05 09:15 | 50.58600 | 5.30024 | 10989 ft | 252 kts | 265° |
| 2026-05-05 09:16 | 50.58415 | 5.27300 | 10659 ft | 249 kts | 264° |
| 2026-05-05 09:16 | 50.58231 | 5.24586 | 10329 ft | 249 kts | 265° |
| 2026-05-05 09:16 | 50.58044 | 5.21910 | 10005 ft | 243 kts | 264° |
| 2026-05-05 09:16 | 50.57863 | 5.19316 | 9684 ft | 235 kts | 265° |
| 2026-05-05 09:17 | 50.57690 | 5.16807 | 9286 ft | 229 kts | 265° |
| 2026-05-05 09:17 | 50.57517 | 5.14234 | 8510 ft | 242 kts | 265° |
| 2026-05-05 09:17 | 50.57330 | 5.11561 | 7754 ft | 249 kts | 266° |
| 2026-05-05 09:17 | 50.57138 | 5.08830 | 7009 ft | 252 kts | 265° |
| 2026-05-05 09:18 | 50.56943 | 5.06081 | 6285 ft | 253 kts | 265° |
| 2026-05-05 09:18 | 50.56751 | 5.03331 | 5515 ft | 252 kts | 265° |
| 2026-05-05 09:18 | 50.56558 | 5.00604 | 4777 ft | 250 kts | 265° |
| 2026-05-05 09:18 | 50.56432 | 4.98812 | 4275 ft | 249 kts | 265° |
| 2026-05-05 09:19 | 50.56239 | 4.96108 | 3515 ft | 247 kts | 265° |
| 2026-05-05 09:19 | 50.56051 | 4.93447 | 2910 ft | 240 kts | 265° |
| 2026-05-05 09:19 | 50.55880 | 4.91000 | 2886 ft | 210 kts | 266° |
| 2026-05-05 09:19 | 50.55712 | 4.88834 | 2873 ft | 191 kts | 264° |
| 2026-05-05 09:20 | 50.55638 | 4.86871 | 2881 ft | 171 kts | 271° |
| 2026-05-05 09:20 | 50.55492 | 4.85076 | 2886 ft | 161 kts | 262° |
| 2026-05-05 09:20 | 50.55341 | 4.83584 | 2883 ft | 148 kts | 266° |
| 2026-05-05 09:20 | 50.55228 | 4.82036 | 2871 ft | 133 kts | 263° |
| 2026-05-05 09:21 | 50.55126 | 4.80685 | 2971 ft | 115 kts | 263° |
| 2026-05-05 09:21 | 50.54876 | 4.79563 | 2988 ft | 105 kts | 242° |
| 2026-05-05 09:21 | 50.54593 | 4.78552 | 2989 ft | 98 kts | 249° |
| 2026-05-05 09:21 | 50.54339 | 4.77601 | 2989 ft | 91 kts | 248° |
| 2026-05-05 09:22 | 50.54103 | 4.76664 | 3005 ft | 97 kts | 248° |
| 2026-05-05 09:22 | 50.53841 | 4.75614 | 3017 ft | 111 kts | 247° |
| 2026-05-05 09:22 | 50.53512 | 4.74413 | 3017 ft | 129 kts | 248° |
| 2026-05-05 09:22 | 50.53173 | 4.73025 | 3005 ft | 144 kts | 250° |
| 2026-05-05 09:23 | 50.52809 | 4.71508 | 3010 ft | 155 kts | 248° |
| 2026-05-05 09:23 | 50.52386 | 4.69914 | 3011 ft | 161 kts | 248° |
| 2026-05-05 09:23 | 50.51946 | 4.68263 | 3009 ft | 167 kts | 248° |
| 2026-05-05 09:23 | 50.51517 | 4.66550 | 3001 ft | 170 kts | 249° |
| 2026-05-05 09:24 | 50.51070 | 4.64818 | 3008 ft | 173 kts | 248° |
| 2026-05-05 09:24 | 50.50634 | 4.63063 | 3001 ft | 171 kts | 249° |
| 2026-05-05 09:24 | 50.50184 | 4.61344 | 3000 ft | 170 kts | 248° |
| 2026-05-05 09:24 | 50.49749 | 4.59685 | 2991 ft | 156 kts | 247° |
| 2026-05-05 09:25 | 50.49357 | 4.58076 | 2635 ft | 157 kts | 250° |
| 2026-05-05 09:25 | 50.49020 | 4.56488 | 2311 ft | 154 kts | 253° |
| 2026-05-05 09:25 | 50.48693 | 4.54925 | 2029 ft | 146 kts | 250° |
| 2026-05-05 09:25 | 50.48328 | 4.53481 | 1755 ft | 138 kts | 249° |
| 2026-05-05 09:26 | 50.47955 | 4.52103 | 1477 ft | 136 kts | 246° |
| 2026-05-05 09:26 | 50.47575 | 4.50777 | 1265 ft | 130 kts | 246° |
| 2026-05-05 09:26 | 50.47200 | 4.49475 | 1035 ft | 130 kts | 246° |
| 2026-05-05 09:26 | 50.46841 | 4.48261 | 840 ft | 108 kts | 246° |
| 2026-05-05 09:27 | 50.46562 | 4.47285 | 668 ft | 88 kts | 247° |
| 2026-05-05 09:27 | 50.46333 | 4.46489 | 616 ft | 74 kts | 246° |
| 2026-05-05 09:27 | 50.46145 | 4.45842 | 618 ft | 51 kts | 246° |
| 2026-05-05 09:27 | 50.46059 | 4.45540 | 619 ft | 14 kts | 245° |
| 2026-05-05 09:28 | 50.46016 | 4.45475 | 617 ft | 8 kts | 147° |
| 2026-05-05 09:28 | 50.46000 | 4.45487 | 617 ft | 0 kts | 156° |
| 2026-05-05 09:30 | 50.45951 | 4.45508 | 619 ft | 14 kts | 188° |
| 2026-05-05 09:30 | 50.45901 | 4.45400 | 622 ft | 13 kts | 243° |
| 2026-05-05 09:30 | 50.45872 | 4.45338 | 623 ft | 6 kts | 205° |
| 2026-05-05 09:31 | 50.45845 | 4.45337 | 618 ft | 5 kts | 242° |
| 2026-05-05 09:31 | 50.45841 | 4.45324 | 622 ft | 0 kts | 233° |